Van Nuys, CA (91407)

7:47 AM PDT on July 05, 2015 (GMT -0700)
Valley Glen - Hacienda | | Change Station
CLOSE
Current Station
Personal Weather Station
Location: Los Angeles, CA
Elevation: 709 ft
Nearby Weather Stations

Elev 709 ft 34.18 °N, 118.42 °W | Updated 21 seconds ago

Haze
Haze
63.9 °F
Feels Like 63.9 °F
N
0.0
Wind Variable Wind from SW
Gusts 1.0 mph

Today
High -- | Low -- °F
--% Chance of Precip.
Yesterday
High -- | Low -- °F
Precip. -- in
5:47 AM 8:09 PM
Waning Gibbous, 84% visible
Pressure 29.94 in
Visibility 4.0 miles
Clouds Overcast 900 ft
Dew Point 59 °F
Humidity 85%
Rainfall 0.00 in
Snow Depth Not available.
UV 0 out of 12
Pollen 3.50 out of 12
Air Quality Not available.
Flu Activity Not available.
METAR KVNY 051351Z 17004KT 4SM HZ OVC009 17/14 A2997 RMK AO2 SLP139 T01720144

More Conditions Fewer Conditions

Pressure 29.94 in
Visibility 4.0 miles
Clouds Overcast 900 ft
Dew Point 59 °F
Humidity 85%
Rainfall 0.00 in
Snow Depth Not available.
UV 0 out of 12
Pollen 3.50 out of 12
Air Quality Not available.
Flu Activity Not available.
METAR KVNY 051351Z 17004KT 4SM HZ OVC009 17/14 A2997 RMK AO2 SLP139 T01720144

More Conditions Fewer Conditions

10-Day Weather Forecast

×

Almanac

Astronomy

Jul. 05, 2015 Rise Set
Actual Time
Civil Twilight
Nautical Twilight
Astronomical Twilight
Moon
Length of Visible Light
Length of Day
Tomorrow will be .
, % of the Moon is Illuminated

Today's Extremes

State Highs State Lows

Community

WunderPhotos

Upload Photos

1,835,278 photos uploaded!

WunderBlogs® & News

Nearby

Air Quality

  Air Quality AQ Index Pollutant
Not available.

Snow Depth

Station Depth Elevation

Earthquake Activity

City Distance Mag. Time & Date
Minimum magnitude displayed is 2.5.

Coastal Water Temperatures

Place Temperature

Stations

Nearby Weather Stations

Station Location Temp. Windchill Dew Point Humidity Wind Precip. Elev Updated Type